createdAt,value
2023-10-12T00:00:49.577Z,12.02
2023-10-12T00:03:33.520Z,12.00
2023-10-12T00:06:01.628Z,13.55
2023-10-12T00:08:32.401Z,11.43
2023-10-12T00:11:07.914Z,13.00
2023-10-12T00:13:42.412Z,11.95
2023-10-12T00:16:11.082Z,12.32
2023-10-12T00:18:39.896Z,13.45
2023-10-12T00:21:16.445Z,12.05
2023-10-12T00:23:45.467Z,12.90
2023-10-12T00:26:14.694Z,12.88
2023-10-12T00:28:46.152Z,12.10
2023-10-12T00:31:19.864Z,12.15
2023-10-12T00:33:50.894Z,11.93
2023-10-12T00:36:25.978Z,12.63
2023-10-12T00:38:57.850Z,12.35
2023-10-12T00:41:26.555Z,12.48
2023-10-12T00:44:10.081Z,11.25
2023-10-12T00:46:58.060Z,11.25
2023-10-12T00:49:31.269Z,11.57
2023-10-12T00:52:10.288Z,10.90
2023-10-12T00:54:38.461Z,12.43
2023-10-12T00:57:07.105Z,11.32
2023-10-12T00:59:35.715Z,10.75
2023-10-12T01:02:09.708Z,10.80
2023-10-12T01:04:38.594Z,11.70
2023-10-12T01:07:12.404Z,12.02
2023-10-12T01:09:40.769Z,11.27
2023-10-12T01:12:15.836Z,11.73
2023-10-12T01:14:45.298Z,10.75
2023-10-12T01:17:25.917Z,11.07
2023-10-12T01:19:53.870Z,11.80
2023-10-12T01:22:28.428Z,10.80
2023-10-12T01:24:56.324Z,10.95
2023-10-12T01:27:26.486Z,10.35
2023-10-12T01:29:55.631Z,10.38
2023-10-12T01:32:28.619Z,10.27
2023-10-12T01:35:05.242Z,9.48
2023-10-12T01:37:44.393Z,10.38
2023-10-12T01:40:16.838Z,10.18
2023-10-12T01:42:47.731Z,9.43
2023-10-12T01:45:25.705Z,9.85
2023-10-12T01:48:07.002Z,9.60
2023-10-12T01:50:38.864Z,8.82
2023-10-12T01:53:20.984Z,9.30
2023-10-12T01:55:53.829Z,9.65
2023-10-12T01:58:29.308Z,8.63
2023-10-12T02:01:06.032Z,8.73
2023-10-12T02:03:44.268Z,8.60
2023-10-12T02:06:16.041Z,9.50
2023-10-12T02:08:50.897Z,8.48
2023-10-12T02:11:18.811Z,8.15
2023-10-12T02:13:48.752Z,7.55
2023-10-12T02:16:26.801Z,7.45
2023-10-12T02:19:00.088Z,8.30
2023-10-12T02:21:28.221Z,7.85
2023-10-12T02:23:59.136Z,7.47
2023-10-12T02:26:49.988Z,8.02
2023-10-12T02:30:08.574Z,7.88
2023-10-12T02:33:09.004Z,7.45
2023-10-12T02:35:50.602Z,8.60
2023-10-12T02:38:33.080Z,7.63
2023-10-12T02:41:07.350Z,8.40
2023-10-12T02:43:38.900Z,7.72
2023-10-12T02:46:23.485Z,6.95
2023-10-12T02:49:03.334Z,7.32
2023-10-12T02:51:46.661Z,6.80
2023-10-12T02:54:27.427Z,7.85
2023-10-12T02:57:09.248Z,7.43
2023-10-12T02:59:50.956Z,7.00
2023-10-12T03:02:22.783Z,6.72
2023-10-12T03:04:51.499Z,7.35
2023-10-12T03:07:24.396Z,6.55
2023-10-12T03:09:59.390Z,6.00
2023-10-12T03:12:34.365Z,6.32
2023-10-12T03:15:13.968Z,6.00
2023-10-12T03:17:46.475Z,6.25
2023-10-12T03:20:21.263Z,5.82
2023-10-12T03:23:00.507Z,5.60
2023-10-12T03:25:44.546Z,5.80
2023-10-12T03:28:14.542Z,5.20
2023-10-12T03:30:47.963Z,5.40
2023-10-12T03:33:16.798Z,5.68
2023-10-12T03:35:59.056Z,5.97
2023-10-12T03:38:33.467Z,6.25
2023-10-12T03:41:39.844Z,5.97
2023-10-12T03:44:18.679Z,6.63
2023-10-12T03:46:59.786Z,6.30
2023-10-12T03:49:28.345Z,6.22
2023-10-12T03:51:59.289Z,6.82
2023-10-12T03:54:33.010Z,6.75
2023-10-12T03:57:19.923Z,6.93
2023-10-12T04:00:13.898Z,5.95
2023-10-12T04:02:52.239Z,6.88
2023-10-12T04:05:42.298Z,6.80
2023-10-12T04:08:10.124Z,6.20
2023-10-12T04:10:47.265Z,6.57
2023-10-12T04:13:27.796Z,6.75
2023-10-12T04:16:06.727Z,5.60
2023-10-12T04:18:50.906Z,6.57
2023-10-12T04:21:24.285Z,6.18
2023-10-12T04:24:10.096Z,6.88
2023-10-12T04:26:38.616Z,6.07
2023-10-12T04:29:13.504Z,6.25
2023-10-12T04:32:04.599Z,6.10
2023-10-12T04:34:36.557Z,6.25
2023-10-12T04:37:12.744Z,5.40
2023-10-12T04:39:50.220Z,4.88
2023-10-12T04:42:35.198Z,4.53
2023-10-12T04:45:23.374Z,3.90
2023-10-12T04:47:58.134Z,3.30
2023-10-12T04:50:28.858Z,3.60
2023-10-12T04:53:10.039Z,3.10
2023-10-12T04:55:37.924Z,3.35
2023-10-12T04:58:31.801Z,3.08
2023-10-12T05:01:16.841Z,2.70
2023-10-12T05:04:07.468Z,2.90
2023-10-12T05:06:38.280Z,3.00
2023-10-12T05:09:12.407Z,2.80
2023-10-12T05:11:40.753Z,2.85
2023-10-12T05:14:15.760Z,3.00
2023-10-12T05:16:46.862Z,3.00
2023-10-12T05:19:15.467Z,2.80
2023-10-12T05:21:45.202Z,3.28
2023-10-12T05:24:13.613Z,3.33
2023-10-12T05:26:41.402Z,3.08
2023-10-12T05:29:35.587Z,3.20
2023-10-12T05:32:15.230Z,3.45
2023-10-12T05:34:43.415Z,3.00
2023-10-12T05:37:17.546Z,3.53
2023-10-12T05:39:48.759Z,3.20
2023-10-12T05:42:17.808Z,3.53
2023-10-12T05:45:16.046Z,3.90
2023-10-12T05:47:45.511Z,4.00
2023-10-12T05:50:16.746Z,4.00
2023-10-12T05:52:45.084Z,4.05
2023-10-12T05:55:22.592Z,4.00
2023-10-12T05:57:50.864Z,4.00
2023-10-12T06:00:37.564Z,4.38
2023-10-12T06:03:06.480Z,4.28
2023-10-12T06:05:35.593Z,4.28
2023-10-12T06:08:07.534Z,3.97
2023-10-12T06:10:38.829Z,4.28
2023-10-12T06:13:07.010Z,4.70
2023-10-12T06:15:41.389Z,4.70
2023-10-12T06:18:22.652Z,4.90
2023-10-12T06:20:59.399Z,4.75
2023-10-12T06:23:27.506Z,4.57
2023-10-12T06:26:07.165Z,4.70
2023-10-12T06:28:36.000Z,5.10
2023-10-12T06:31:06.993Z,4.88
2023-10-12T06:33:35.709Z,5.28
2023-10-12T06:36:05.090Z,5.22
2023-10-12T06:39:03.678Z,5.20
2023-10-12T06:41:34.621Z,5.00
2023-10-12T06:44:14.111Z,5.10
2023-10-12T06:46:47.600Z,4.18
2023-10-12T06:49:24.840Z,3.90
2023-10-12T06:52:03.060Z,4.32
2023-10-12T06:54:41.254Z,4.45
2023-10-12T06:57:27.943Z,4.28
2023-10-12T07:00:04.190Z,4.00
2023-10-12T07:02:35.344Z,3.78
2023-10-12T07:05:06.265Z,4.00
2023-10-12T07:07:44.382Z,3.90
2023-10-12T07:10:12.605Z,3.75
2023-10-12T07:12:49.310Z,3.92
2023-10-12T07:15:24.419Z,4.10
2023-10-12T07:17:56.033Z,4.40
2023-10-12T07:20:34.622Z,4.05
2023-10-12T07:23:11.823Z,4.25
2023-10-12T07:25:39.788Z,4.57
2023-10-12T07:28:17.209Z,5.10
2023-10-12T07:30:45.518Z,4.28
2023-10-12T07:33:13.733Z,4.22
2023-10-12T07:35:43.622Z,4.47
2023-10-12T07:38:34.616Z,4.35
2023-10-12T07:41:04.975Z,3.95
2023-10-12T07:43:33.736Z,4.10
2023-10-12T07:46:17.397Z,4.25
2023-10-12T07:48:46.445Z,4.35
2023-10-12T07:51:30.413Z,4.93
2023-10-12T07:54:00.638Z,4.68
2023-10-12T07:56:35.637Z,4.95
2023-10-12T07:59:15.252Z,5.30
2023-10-12T08:01:51.699Z,6.47
2023-10-12T08:04:33.589Z,5.50
2023-10-12T08:09:48.867Z,4.57
2023-10-12T08:12:26.473Z,5.00
2023-10-12T08:15:16.463Z,4.97
2023-10-12T08:17:47.260Z,4.57
2023-10-12T08:20:34.413Z,4.55
2023-10-12T08:23:03.769Z,3.90
2023-10-12T08:25:39.797Z,4.20
2023-10-12T08:28:07.901Z,4.65
2023-10-12T08:31:01.744Z,4.38
2023-10-12T08:33:48.555Z,4.28
2023-10-12T08:36:17.161Z,4.70
2023-10-12T08:38:55.265Z,4.53
2023-10-12T08:41:27.551Z,5.05
2023-10-12T08:44:00.719Z,5.30
2023-10-12T08:46:58.966Z,4.97
2023-10-12T08:49:35.405Z,6.70
2023-10-12T08:52:09.402Z,5.00
2023-10-12T08:54:38.892Z,5.13
2023-10-12T08:57:21.420Z,7.60
2023-10-12T09:00:20.642Z,5.38
2023-10-12T09:02:54.155Z,5.63
2023-10-12T09:05:25.643Z,5.32
2023-10-12T09:08:20.303Z,5.35
2023-10-12T09:11:06.868Z,4.95
2023-10-12T09:13:36.679Z,5.35
2023-10-12T09:16:11.300Z,5.32
2023-10-12T09:18:48.441Z,5.35
2023-10-12T09:21:24.756Z,4.90
2023-10-12T09:24:09.705Z,4.85
2023-10-12T09:26:38.845Z,4.93
2023-10-12T09:29:07.957Z,4.22
2023-10-12T09:31:40.980Z,4.60
2023-10-12T09:34:11.574Z,3.55
2023-10-12T09:37:07.606Z,3.90
2023-10-12T09:39:55.848Z,3.53
2023-10-12T09:42:29.227Z,3.47
2023-10-12T09:45:18.269Z,3.40
2023-10-12T09:48:20.276Z,3.50
2023-10-12T09:50:52.789Z,3.30
2023-10-12T09:53:27.992Z,3.30
2023-10-12T09:56:12.537Z,3.00
2023-10-12T09:58:52.227Z,3.53
2023-10-12T10:01:45.025Z,3.60
2023-10-12T10:04:27.623Z,3.60
2023-10-12T10:07:18.967Z,3.75
2023-10-12T10:09:51.351Z,3.70
2023-10-12T10:12:22.263Z,4.00
2023-10-12T10:14:55.392Z,3.70
2023-10-12T10:17:25.964Z,3.40
2023-10-12T10:20:40.474Z,3.53
2023-10-12T10:23:15.552Z,3.85
2023-10-12T10:25:52.668Z,3.83
2023-10-12T10:28:28.839Z,3.80
2023-10-12T10:31:01.303Z,4.13
2023-10-12T10:33:30.763Z,3.95
2023-10-12T10:36:14.692Z,4.00
2023-10-12T10:38:54.384Z,3.88
2023-10-12T10:41:40.163Z,3.80
2023-10-12T10:44:18.244Z,3.40
2023-10-12T10:46:56.534Z,3.58
2023-10-12T10:52:23.342Z,3.25
2023-10-12T10:55:25.966Z,3.45
2023-10-12T10:57:58.405Z,3.60
2023-10-12T11:00:35.529Z,3.75
2023-10-12T11:03:06.866Z,3.92
2023-10-12T11:05:40.906Z,4.43
2023-10-12T11:08:23.645Z,4.00
2023-10-12T11:11:12.165Z,3.90
2023-10-12T11:13:42.962Z,3.67
2023-10-12T11:16:45.600Z,4.18
2023-10-12T11:19:15.172Z,4.00
2023-10-12T11:21:47.699Z,4.40
2023-10-12T11:25:31.916Z,4.50
2023-10-12T11:28:00.432Z,4.30
2023-10-12T11:31:03.971Z,4.25
2023-10-12T11:33:33.547Z,4.40
2023-10-12T11:36:05.211Z,3.72
2023-10-12T11:38:33.739Z,3.72
2023-10-12T11:41:17.857Z,3.92
2023-10-12T11:43:54.322Z,4.15
2023-10-12T11:46:27.199Z,3.90
2023-10-12T11:49:10.155Z,3.63
2023-10-12T11:51:43.396Z,4.20
2023-10-12T12:03:55.172Z,4.38
2023-10-12T12:06:27.740Z,4.57
2023-10-12T12:09:02.337Z,5.13
2023-10-12T12:11:32.969Z,5.55
2023-10-12T12:14:03.367Z,5.60
2023-10-12T12:16:32.135Z,6.63
2023-10-12T12:19:00.997Z,6.38
2023-10-12T12:25:39.838Z,7.57
2023-10-12T12:28:16.025Z,7.13
2023-10-12T12:33:20.802Z,6.78
2023-10-12T12:35:49.876Z,6.50
2023-10-12T12:38:34.921Z,7.00
2023-10-12T12:41:07.163Z,6.97
2023-10-12T12:43:35.976Z,6.15
2023-10-12T12:46:06.578Z,5.97
2023-10-12T12:48:35.370Z,6.88
2023-10-12T12:51:04.604Z,6.50
2023-10-12T12:53:35.770Z,6.60
2023-10-12T12:56:04.266Z,7.13
2023-10-12T12:58:34.008Z,6.68
2023-10-12T13:01:02.518Z,6.85
2023-10-12T13:03:33.814Z,6.50
2023-10-12T13:06:08.654Z,6.57
2023-10-12T13:08:38.046Z,7.22
2023-10-12T13:11:06.783Z,7.30
2023-10-12T13:13:35.661Z,7.75
2023-10-12T13:16:07.207Z,7.88
2023-10-12T13:18:39.840Z,8.13
2023-10-12T13:21:08.134Z,8.55
2023-10-12T13:23:36.810Z,8.85
2023-10-12T13:26:14.249Z,9.05
2023-10-12T13:28:45.755Z,10.10
2023-10-12T13:33:32.416Z,9.63
2023-10-12T13:36:00.903Z,9.98
2023-10-12T13:38:32.877Z,10.18
2023-10-12T13:41:02.848Z,9.88
2023-10-12T13:43:36.270Z,9.40
2023-10-12T13:46:13.811Z,9.77
2023-10-12T13:48:42.748Z,10.63
2023-10-12T13:51:24.412Z,9.82
2023-10-12T13:56:25.476Z,9.70
2023-10-12T13:58:53.710Z,9.18
2023-10-12T14:01:24.884Z,9.48
2023-10-12T14:03:58.922Z,8.30
2023-10-12T14:06:31.383Z,7.05
2023-10-12T14:09:00.235Z,7.03
2023-10-12T14:11:28.577Z,7.10
2023-10-12T14:13:56.468Z,6.65
2023-10-12T14:16:24.723Z,6.25
2023-10-12T14:18:52.831Z,6.60
2023-10-12T14:21:21.102Z,6.22
2023-10-12T14:23:50.363Z,6.47
2023-10-12T14:26:20.118Z,6.47
2023-10-12T14:28:52.406Z,5.70
2023-10-12T14:31:22.635Z,6.43
2023-10-12T14:33:53.720Z,6.90
2023-10-12T14:36:25.304Z,7.00
2023-10-12T14:38:56.214Z,6.88
2023-10-12T14:43:54.843Z,6.57
2023-10-12T14:46:23.308Z,7.05
2023-10-12T14:48:53.325Z,7.22
2023-10-12T14:51:26.023Z,7.80
2023-10-12T14:53:54.120Z,7.43
2023-10-12T14:56:24.537Z,7.57
2023-10-12T14:58:52.596Z,7.50
2023-10-12T15:01:23.149Z,7.43
2023-10-12T15:03:51.450Z,7.65
2023-10-12T15:06:21.705Z,7.53
2023-10-12T15:08:50.132Z,8.10
2023-10-12T15:11:21.167Z,7.80
2023-10-12T15:13:50.764Z,7.50
2023-10-12T15:16:20.109Z,7.82
2023-10-12T15:21:28.801Z,8.25
2023-10-12T15:23:59.848Z,7.60
2023-10-12T15:26:28.181Z,8.38
2023-10-12T15:28:56.886Z,8.32
2023-10-12T15:31:28.263Z,8.25
2023-10-12T15:33:57.748Z,8.15
2023-10-12T15:38:48.355Z,8.88
2023-10-12T15:41:16.622Z,8.13
2023-10-12T15:43:44.388Z,7.97
2023-10-12T15:46:12.949Z,8.57
2023-10-12T15:48:42.150Z,8.07
2023-10-12T15:51:21.702Z,8.13
2023-10-12T15:53:51.698Z,8.10
2023-10-12T15:56:20.287Z,8.13
2023-10-12T15:58:52.059Z,7.63
2023-10-12T16:01:21.390Z,8.80
2023-10-12T16:03:49.687Z,7.75
2023-10-12T16:06:18.109Z,8.05
2023-10-12T16:08:49.954Z,7.95
2023-10-12T16:11:18.281Z,7.28
2023-10-12T16:13:47.462Z,7.35
2023-10-12T16:16:19.630Z,8.07
2023-10-12T16:18:47.971Z,7.90
2023-10-12T16:21:17.953Z,7.43
2023-10-12T16:23:47.435Z,7.88
2023-10-12T16:26:16.657Z,7.60
2023-10-12T16:28:44.751Z,7.05
2023-10-12T16:31:13.430Z,7.93
2023-10-12T16:33:41.744Z,7.60
2023-10-12T16:36:12.704Z,7.68
2023-10-12T16:38:41.788Z,7.30
2023-10-12T16:41:10.307Z,7.38
2023-10-12T16:43:39.318Z,7.18
2023-10-12T16:46:08.556Z,7.60
2023-10-12T16:48:39.940Z,8.32
2023-10-12T16:51:08.897Z,7.60
2023-10-12T16:53:40.196Z,8.82
2023-10-12T16:56:11.555Z,7.20
2023-10-12T16:58:43.128Z,7.85
2023-10-12T17:01:15.112Z,7.65
2023-10-12T17:03:43.551Z,7.38
2023-10-12T17:06:16.931Z,7.22
2023-10-12T17:11:13.385Z,7.53
2023-10-12T17:13:41.201Z,7.88
2023-10-12T17:16:09.754Z,7.75
2023-10-12T17:18:38.434Z,8.63
2023-10-12T17:21:07.617Z,7.70
2023-10-12T17:23:37.569Z,7.80
2023-10-12T17:26:05.789Z,7.60
2023-10-12T17:28:34.951Z,7.88
2023-10-12T17:31:07.935Z,7.57
2023-10-12T17:33:40.035Z,7.20
2023-10-12T17:36:18.339Z,7.85
2023-10-12T17:38:48.781Z,8.07
2023-10-12T17:41:22.856Z,7.80
2023-10-12T17:43:52.793Z,7.22
2023-10-12T17:46:22.133Z,7.25
2023-10-12T17:48:54.565Z,7.32
2023-10-12T17:51:23.998Z,7.70
2023-10-12T17:53:52.096Z,7.35
2023-10-12T17:56:22.603Z,7.25
2023-10-12T17:58:50.525Z,7.43
2023-10-12T18:01:21.751Z,8.02
2023-10-12T18:03:50.507Z,7.18
2023-10-12T18:06:21.358Z,6.85
2023-10-12T18:08:50.325Z,6.93
2023-10-12T18:11:18.727Z,7.20
2023-10-12T18:13:49.118Z,6.82
2023-10-12T18:16:17.896Z,7.70
2023-10-12T18:18:45.913Z,9.18
2023-10-12T18:21:14.484Z,7.97
2023-10-12T18:23:42.584Z,9.00
2023-10-12T18:26:17.016Z,6.22
2023-10-12T18:28:44.931Z,5.88
2023-10-12T18:31:16.988Z,5.82
2023-10-12T18:33:45.432Z,5.45
2023-10-12T18:36:13.626Z,5.00
2023-10-12T18:38:44.476Z,5.20
2023-10-12T18:41:17.964Z,5.63
2023-10-12T18:43:49.880Z,5.30
2023-10-12T18:46:21.808Z,5.22
2023-10-12T18:48:51.554Z,5.43
2023-10-12T18:51:22.201Z,5.20
2023-10-12T18:53:51.689Z,4.97
2023-10-12T18:56:21.642Z,5.10
2023-10-12T18:58:51.003Z,5.00
2023-10-12T19:01:20.066Z,5.68
2023-10-12T19:03:48.265Z,5.18
2023-10-12T19:06:16.418Z,5.30
2023-10-12T19:08:47.474Z,4.80
2023-10-12T19:11:17.997Z,4.40
2023-10-12T19:13:47.703Z,5.18
2023-10-12T19:16:19.886Z,4.65
2023-10-12T19:18:49.127Z,4.78
2023-10-12T19:21:17.401Z,4.85
2023-10-12T19:23:45.852Z,4.70
2023-10-12T19:26:15.622Z,4.40
2023-10-12T19:28:45.293Z,4.35
2023-10-12T19:31:15.037Z,4.47
2023-10-12T19:33:43.434Z,4.82
2023-10-12T19:36:13.377Z,5.20
2023-10-12T19:38:41.511Z,5.25
2023-10-12T19:41:10.817Z,4.30
2023-10-12T19:43:39.093Z,4.10
2023-10-12T19:46:11.916Z,3.97
2023-10-12T19:48:40.985Z,3.60
2023-10-12T19:51:14.281Z,3.97
2023-10-12T19:53:48.018Z,4.22
2023-10-12T19:56:18.621Z,4.03
2023-10-12T19:58:50.068Z,5.13
2023-10-12T20:01:22.953Z,5.22
2023-10-12T20:03:52.111Z,4.82
2023-10-12T20:06:21.604Z,4.90
2023-10-12T20:08:50.218Z,5.88
2023-10-12T20:11:21.191Z,5.40
2023-10-12T20:13:50.211Z,5.83
2023-10-12T20:16:25.782Z,6.15
2023-10-12T20:18:54.072Z,6.55
2023-10-12T20:21:22.235Z,6.30
2023-10-12T20:23:50.523Z,6.25
2023-10-12T20:26:19.208Z,6.43
2023-10-12T20:28:47.128Z,6.38
2023-10-12T20:31:15.513Z,6.30
2023-10-12T20:33:47.132Z,6.20
2023-10-12T20:36:15.422Z,5.70
2023-10-12T20:38:43.224Z,5.97
2023-10-12T20:41:11.838Z,5.32
2023-10-12T20:43:39.783Z,4.68
2023-10-12T20:46:11.616Z,4.97
2023-10-12T20:48:41.096Z,5.00
2023-10-12T20:51:12.697Z,4.32
2023-10-12T20:53:40.826Z,3.92
2023-10-12T20:56:20.517Z,3.85
2023-10-12T20:58:48.346Z,4.25
2023-10-12T21:01:23.244Z,3.80
2023-10-12T21:03:54.757Z,3.28
2023-10-12T21:06:28.560Z,3.67
2023-10-12T21:08:58.467Z,3.10
2023-10-12T21:11:26.929Z,3.35
2023-10-12T21:13:58.156Z,3.05
2023-10-12T21:16:28.212Z,3.33
2023-10-12T21:19:06.827Z,3.05
2023-10-12T21:21:35.009Z,3.20
2023-10-12T21:24:18.000Z,2.80
2023-10-12T21:29:00.914Z,3.08
2023-10-12T21:31:31.059Z,3.17
2023-10-12T21:34:01.115Z,2.92
2023-10-12T21:36:39.802Z,3.20
2023-10-12T21:39:12.518Z,3.60
2023-10-12T21:41:40.921Z,3.95
2023-10-12T21:44:10.860Z,3.28
2023-10-12T21:46:41.562Z,2.80
2023-10-12T21:49:10.566Z,3.00
2023-10-12T21:51:39.044Z,2.42
2023-10-12T21:54:07.735Z,2.75
2023-10-12T21:56:37.170Z,2.75
2023-10-12T21:59:09.992Z,2.55
2023-10-12T22:02:03.986Z,2.30
2023-10-12T22:04:36.785Z,2.10
2023-10-12T22:07:07.847Z,2.30
2023-10-12T22:12:30.928Z,2.45
2023-10-12T22:15:02.458Z,2.30
2023-10-12T22:17:31.757Z,2.47
2023-10-12T22:19:59.831Z,2.35
2023-10-12T22:22:28.818Z,2.47
2023-10-12T22:24:57.255Z,2.40
2023-10-12T22:27:31.556Z,2.50
2023-10-12T22:30:04.993Z,2.38
2023-10-12T22:32:34.080Z,2.65
2023-10-12T22:35:02.483Z,2.50
2023-10-12T22:37:31.822Z,2.30
2023-10-12T22:40:00.012Z,2.10
2023-10-12T22:42:27.958Z,2.33
2023-10-12T22:44:58.527Z,2.00
2023-10-12T22:47:28.706Z,1.90
2023-10-12T22:49:56.856Z,1.80
2023-10-12T22:52:24.703Z,1.80
2023-10-12T22:54:52.785Z,1.80
2023-10-12T22:57:20.573Z,1.75
2023-10-12T22:59:48.690Z,1.88
2023-10-12T23:02:16.548Z,1.90
2023-10-12T23:04:45.073Z,1.70
2023-10-12T23:07:14.124Z,1.80
2023-10-12T23:09:43.275Z,1.48
2023-10-12T23:12:20.109Z,1.63
2023-10-12T23:14:50.899Z,1.75
2023-10-12T23:17:21.896Z,1.63
2023-10-12T23:22:28.929Z,1.50
2023-10-12T23:25:07.139Z,1.40
2023-10-12T23:27:35.309Z,1.50
2023-10-12T23:30:18.832Z,1.50
2023-10-12T23:32:57.268Z,1.60
2023-10-12T23:35:37.684Z,1.50
2023-10-12T23:38:37.705Z,1.35
2023-10-12T23:41:15.881Z,1.30
2023-10-12T23:43:54.218Z,1.48
2023-10-12T23:46:24.782Z,1.52
2023-10-12T23:48:58.048Z,1.20
2023-10-12T23:51:30.857Z,1.20
2023-10-12T23:54:18.857Z,1.30
2023-10-12T23:56:52.242Z,1.40
2023-10-12T23:59:23.292Z,1.50
